sensor_id;sensor_type;location;lat;lon;timestamp;temperature;humidity
5200;DHT22;2619;47.868;11.892;2023-04-08T00:00:21;4.90;99.90
5200;DHT22;2619;47.868;11.892;2023-04-08T00:02:47;4.90;99.90
5200;DHT22;2619;47.868;11.892;2023-04-08T00:05:13;4.80;99.90
5200;DHT22;2619;47.868;11.892;2023-04-08T00:07:38;4.80;99.90
5200;DHT22;2619;47.868;11.892;2023-04-08T00:10:04;4.80;99.90
5200;DHT22;2619;47.868;11.892;2023-04-08T00:12:31;4.70;99.90
5200;DHT22;2619;47.868;11.892;2023-04-08T00:14:57;4.80;99.90
5200;DHT22;2619;47.868;11.892;2023-04-08T00:17:22;4.80;99.90
5200;DHT22;2619;47.868;11.892;2023-04-08T00:19:48;4.70;99.90
5200;DHT22;2619;47.868;11.892;2023-04-08T00:22:13;4.60;99.90
5200;DHT22;2619;47.868;11.892;2023-04-08T00:24:39;4.60;99.90
5200;DHT22;2619;47.868;11.892;2023-04-08T00:27:05;4.60;99.90
5200;DHT22;2619;47.868;11.892;2023-04-08T00:29:31;4.50;99.90
5200;DHT22;2619;47.868;11.892;2023-04-08T00:31:56;4.50;99.90
5200;DHT22;2619;47.868;11.892;2023-04-08T00:34:22;4.60;99.90
5200;DHT22;2619;47.868;11.892;2023-04-08T00:36:48;4.60;99.90
5200;DHT22;2619;47.868;11.892;2023-04-08T00:39:14;4.70;99.90
5200;DHT22;2619;47.868;11.892;2023-04-08T00:41:40;4.60;99.90
5200;DHT22;2619;47.868;11.892;2023-04-08T00:44:05;4.60;99.90
5200;DHT22;2619;47.868;11.892;2023-04-08T00:46:35;4.50;99.90
5200;DHT22;2619;47.868;11.892;2023-04-08T00:49:02;4.60;99.90
5200;DHT22;2619;47.868;11.892;2023-04-08T00:51:29;4.50;99.90
5200;DHT22;2619;47.868;11.892;2023-04-08T00:53:55;4.50;99.90
5200;DHT22;2619;47.868;11.892;2023-04-08T00:56:22;4.50;99.90
5200;DHT22;2619;47.868;11.892;2023-04-08T00:58:48;4.60;99.90
5200;DHT22;2619;47.868;11.892;2023-04-08T01:01:29;4.50;99.90
5200;DHT22;2619;47.868;11.892;2023-04-08T01:06:50;4.50;99.90
5200;DHT22;2619;47.868;11.892;2023-04-08T01:09:19;4.40;99.90
5200;DHT22;2619;47.868;11.892;2023-04-08T01:11:48;4.40;99.90
5200;DHT22;2619;47.868;11.892;2023-04-08T01:14:19;4.40;99.90
5200;DHT22;2619;47.868;11.892;2023-04-08T01:16:45;4.40;99.90
5200;DHT22;2619;47.868;11.892;2023-04-08T01:19:26;4.30;99.90
5200;DHT22;2619;47.868;11.892;2023-04-08T01:21:53;4.40;99.90
5200;DHT22;2619;47.868;11.892;2023-04-08T01:24:30;4.40;99.90
5200;DHT22;2619;47.868;11.892;2023-04-08T01:26:58;4.40;99.90
5200;DHT22;2619;47.868;11.892;2023-04-08T01:29:26;4.40;99.90
5200;DHT22;2619;47.868;11.892;2023-04-08T01:31:53;4.50;99.90
5200;DHT22;2619;47.868;11.892;2023-04-08T01:34:20;4.40;99.90
5200;DHT22;2619;47.868;11.892;2023-04-08T01:36:46;4.30;99.90
5200;DHT22;2619;47.868;11.892;2023-04-08T01:39:13;4.30;99.90
5200;DHT22;2619;47.868;11.892;2023-04-08T01:41:40;4.30;99.90
5200;DHT22;2619;47.868;11.892;2023-04-08T01:44:06;4.40;99.90
5200;DHT22;2619;47.868;11.892;2023-04-08T01:46:34;4.40;99.90
5200;DHT22;2619;47.868;11.892;2023-04-08T01:49:00;4.30;99.90
5200;DHT22;2619;47.868;11.892;2023-04-08T01:51:27;4.30;99.90
5200;DHT22;2619;47.868;11.892;2023-04-08T01:53:54;4.30;99.90
5200;DHT22;2619;47.868;11.892;2023-04-08T01:56:21;4.20;99.90
5200;DHT22;2619;47.868;11.892;2023-04-08T01:58:50;4.10;99.90
5200;DHT22;2619;47.868;11.892;2023-04-08T02:01:20;4.00;99.90
5200;DHT22;2619;47.868;11.892;2023-04-08T02:03:47;3.90;99.90
5200;DHT22;2619;47.868;11.892;2023-04-08T02:06:16;3.80;99.90
5200;DHT22;2619;47.868;11.892;2023-04-08T02:08:42;3.80;99.90
5200;DHT22;2619;47.868;11.892;2023-04-08T02:11:07;3.90;99.90
5200;DHT22;2619;47.868;11.892;2023-04-08T02:13:33;3.90;99.90
5200;DHT22;2619;47.868;11.892;2023-04-08T02:16:51;3.80;99.90
5200;DHT22;2619;47.868;11.892;2023-04-08T02:19:19;3.80;99.90
5200;DHT22;2619;47.868;11.892;2023-04-08T02:21:50;3.70;99.90
5200;DHT22;2619;47.868;11.892;2023-04-08T02:24:17;3.70;99.90
5200;DHT22;2619;47.868;11.892;2023-04-08T02:26:44;3.70;99.90
5200;DHT22;2619;47.868;11.892;2023-04-08T02:29:14;3.70;99.90
5200;DHT22;2619;47.868;11.892;2023-04-08T02:31:43;3.80;99.90
5200;DHT22;2619;47.868;11.892;2023-04-08T02:34:10;3.80;99.90
5200;DHT22;2619;47.868;11.892;2023-04-08T02:36:36;4.00;99.90
5200;DHT22;2619;47.868;11.892;2023-04-08T02:39:03;4.00;99.90
5200;DHT22;2619;47.868;11.892;2023-04-08T02:41:29;4.00;99.90
5200;DHT22;2619;47.868;11.892;2023-04-08T02:43:55;4.00;99.90
5200;DHT22;2619;47.868;11.892;2023-04-08T02:46:20;4.00;99.90
5200;DHT22;2619;47.868;11.892;2023-04-08T02:48:46;3.90;99.90
5200;DHT22;2619;47.868;11.892;2023-04-08T02:51:12;4.00;99.90
5200;DHT22;2619;47.868;11.892;2023-04-08T02:53:37;3.90;99.90
5200;DHT22;2619;47.868;11.892;2023-04-08T02:56:03;3.80;99.90
5200;DHT22;2619;47.868;11.892;2023-04-08T02:58:29;3.90;99.90
5200;DHT22;2619;47.868;11.892;2023-04-08T03:00:55;4.00;99.90
5200;DHT22;2619;47.868;11.892;2023-04-08T03:03:21;3.90;99.90
5200;DHT22;2619;47.868;11.892;2023-04-08T03:05:56;3.90;99.90
5200;DHT22;2619;47.868;11.892;2023-04-08T03:08:22;3.80;99.90
5200;DHT22;2619;47.868;11.892;2023-04-08T03:10:48;3.90;99.90
5200;DHT22;2619;47.868;11.892;2023-04-08T03:13:15;3.90;99.90
5200;DHT22;2619;47.868;11.892;2023-04-08T03:15:40;3.80;99.90
5200;DHT22;2619;47.868;11.892;2023-04-08T03:18:06;3.80;99.90
5200;DHT22;2619;47.868;11.892;2023-04-08T03:20:32;3.80;99.90
5200;DHT22;2619;47.868;11.892;2023-04-08T03:22:57;3.90;99.90
5200;DHT22;2619;47.868;11.892;2023-04-08T03:25:23;3.90;99.90
5200;DHT22;2619;47.868;11.892;2023-04-08T03:27:49;3.90;99.90
5200;DHT22;2619;47.868;11.892;2023-04-08T03:30:15;4.00;99.90
5200;DHT22;2619;47.868;11.892;2023-04-08T03:32:41;4.00;99.90
5200;DHT22;2619;47.868;11.892;2023-04-08T03:35:07;3.90;99.90
5200;DHT22;2619;47.868;11.892;2023-04-08T03:37:32;3.90;99.90
5200;DHT22;2619;47.868;11.892;2023-04-08T03:39:58;4.00;99.90
5200;DHT22;2619;47.868;11.892;2023-04-08T03:42:24;4.00;99.90
5200;DHT22;2619;47.868;11.892;2023-04-08T03:44:49;4.20;99.90
5200;DHT22;2619;47.868;11.892;2023-04-08T03:47:15;4.30;99.90
5200;DHT22;2619;47.868;11.892;2023-04-08T03:49:41;4.30;99.90
5200;DHT22;2619;47.868;11.892;2023-04-08T03:52:06;4.30;99.90
5200;DHT22;2619;47.868;11.892;2023-04-08T03:54:32;4.40;99.90
5200;DHT22;2619;47.868;11.892;2023-04-08T03:56:58;4.50;99.90
5200;DHT22;2619;47.868;11.892;2023-04-08T03:59:23;4.50;99.90
5200;DHT22;2619;47.868;11.892;2023-04-08T04:01:49;4.50;99.90
5200;DHT22;2619;47.868;11.892;2023-04-08T04:04:15;4.50;99.90
5200;DHT22;2619;47.868;11.892;2023-04-08T04:06:41;4.40;99.90
5200;DHT22;2619;47.868;11.892;2023-04-08T04:09:07;4.40;99.90
5200;DHT22;2619;47.868;11.892;2023-04-08T04:11:36;4.50;99.90
5200;DHT22;2619;47.868;11.892;2023-04-08T04:14:02;4.40;99.90
5200;DHT22;2619;47.868;11.892;2023-04-08T04:16:27;4.40;99.90
5200;DHT22;2619;47.868;11.892;2023-04-08T04:18:53;4.40;99.90
5200;DHT22;2619;47.868;11.892;2023-04-08T04:21:18;4.60;99.90
5200;DHT22;2619;47.868;11.892;2023-04-08T04:23:44;4.50;99.90
5200;DHT22;2619;47.868;11.892;2023-04-08T04:26:10;4.60;99.90
5200;DHT22;2619;47.868;11.892;2023-04-08T04:28:36;4.60;99.90
5200;DHT22;2619;47.868;11.892;2023-04-08T04:31:02;4.60;99.90
5200;DHT22;2619;47.868;11.892;2023-04-08T04:33:28;4.60;99.90
5200;DHT22;2619;47.868;11.892;2023-04-08T04:35:54;4.60;99.90
5200;DHT22;2619;47.868;11.892;2023-04-08T04:38:20;4.60;99.90
5200;DHT22;2619;47.868;11.892;2023-04-08T04:40:45;4.60;99.90
5200;DHT22;2619;47.868;11.892;2023-04-08T04:43:11;4.60;99.90
5200;DHT22;2619;47.868;11.892;2023-04-08T04:45:37;4.70;99.90
5200;DHT22;2619;47.868;11.892;2023-04-08T04:48:02;4.70;99.90
5200;DHT22;2619;47.868;11.892;2023-04-08T04:50:28;4.70;99.90
5200;DHT22;2619;47.868;11.892;2023-04-08T04:52:53;4.70;99.90
5200;DHT22;2619;47.868;11.892;2023-04-08T04:55:19;4.70;99.90
5200;DHT22;2619;47.868;11.892;2023-04-08T04:57:47;4.70;99.90
5200;DHT22;2619;47.868;11.892;2023-04-08T05:00:13;4.70;99.90
5200;DHT22;2619;47.868;11.892;2023-04-08T05:02:38;4.80;99.90
5200;DHT22;2619;47.868;11.892;2023-04-08T05:05:05;4.80;99.90
5200;DHT22;2619;47.868;11.892;2023-04-08T05:07:30;4.90;99.90
5200;DHT22;2619;47.868;11.892;2023-04-08T05:09:56;4.90;99.90
5200;DHT22;2619;47.868;11.892;2023-04-08T05:12:22;5.00;99.90
5200;DHT22;2619;47.868;11.892;2023-04-08T05:14:47;5.00;99.90
5200;DHT22;2619;47.868;11.892;2023-04-08T05:17:13;5.10;99.90
5200;DHT22;2619;47.868;11.892;2023-04-08T05:19:38;5.10;99.90
5200;DHT22;2619;47.868;11.892;2023-04-08T05:22:04;5.10;99.90
5200;DHT22;2619;47.868;11.892;2023-04-08T05:24:30;5.20;99.90
5200;DHT22;2619;47.868;11.892;2023-04-08T05:26:55;5.30;99.90
5200;DHT22;2619;47.868;11.892;2023-04-08T05:29:22;5.30;99.90
5200;DHT22;2619;47.868;11.892;2023-04-08T05:31:48;5.50;99.90
5200;DHT22;2619;47.868;11.892;2023-04-08T05:34:13;5.60;99.90
5200;DHT22;2619;47.868;11.892;2023-04-08T05:36:40;5.70;99.90
5200;DHT22;2619;47.868;11.892;2023-04-08T05:39:05;5.80;99.90
5200;DHT22;2619;47.868;11.892;2023-04-08T05:41:31;5.90;99.90
5200;DHT22;2619;47.868;11.892;2023-04-08T05:43:57;5.90;99.90
5200;DHT22;2619;47.868;11.892;2023-04-08T05:46:22;5.90;99.90
5200;DHT22;2619;47.868;11.892;2023-04-08T05:48:48;6.00;99.90
5200;DHT22;2619;47.868;11.892;2023-04-08T05:51:14;6.10;99.90
5200;DHT22;2619;47.868;11.892;2023-04-08T05:53:40;6.20;99.90
5200;DHT22;2619;47.868;11.892;2023-04-08T05:56:06;6.20;99.90
5200;DHT22;2619;47.868;11.892;2023-04-08T05:58:32;6.30;99.90
5200;DHT22;2619;47.868;11.892;2023-04-08T06:00:57;6.40;99.90
5200;DHT22;2619;47.868;11.892;2023-04-08T06:03:23;6.50;99.90
5200;DHT22;2619;47.868;11.892;2023-04-08T06:05:48;6.60;99.90
5200;DHT22;2619;47.868;11.892;2023-04-08T06:08:14;6.60;99.90
5200;DHT22;2619;47.868;11.892;2023-04-08T06:10:47;6.70;99.90
5200;DHT22;2619;47.868;11.892;2023-04-08T06:13:13;6.70;99.90
5200;DHT22;2619;47.868;11.892;2023-04-08T06:15:38;6.70;99.90
5200;DHT22;2619;47.868;11.892;2023-04-08T06:18:04;6.80;99.90
5200;DHT22;2619;47.868;11.892;2023-04-08T06:20:30;6.80;99.90
5200;DHT22;2619;47.868;11.892;2023-04-08T06:22:55;6.70;99.90
5200;DHT22;2619;47.868;11.892;2023-04-08T06:25:21;6.80;99.90
5200;DHT22;2619;47.868;11.892;2023-04-08T06:27:48;6.80;99.90
5200;DHT22;2619;47.868;11.892;2023-04-08T06:30:14;6.90;99.90
5200;DHT22;2619;47.868;11.892;2023-04-08T06:32:40;6.80;99.90
5200;DHT22;2619;47.868;11.892;2023-04-08T06:35:06;6.80;99.90
5200;DHT22;2619;47.868;11.892;2023-04-08T06:37:32;6.80;99.90
5200;DHT22;2619;47.868;11.892;2023-04-08T06:40:03;6.70;99.90
5200;DHT22;2619;47.868;11.892;2023-04-08T06:42:29;6.70;99.90
5200;DHT22;2619;47.868;11.892;2023-04-08T06:44:54;6.80;99.90
5200;DHT22;2619;47.868;11.892;2023-04-08T06:47:20;6.90;99.90
5200;DHT22;2619;47.868;11.892;2023-04-08T06:49:46;6.90;99.90
5200;DHT22;2619;47.868;11.892;2023-04-08T06:52:12;7.00;99.90
5200;DHT22;2619;47.868;11.892;2023-04-08T06:54:38;7.00;99.90
5200;DHT22;2619;47.868;11.892;2023-04-08T06:57:03;7.10;99.90
5200;DHT22;2619;47.868;11.892;2023-04-08T06:59:29;7.10;99.90
5200;DHT22;2619;47.868;11.892;2023-04-08T07:01:55;7.00;99.90
5200;DHT22;2619;47.868;11.892;2023-04-08T07:04:20;7.00;99.90
5200;DHT22;2619;47.868;11.892;2023-04-08T07:06:46;6.90;99.90
5200;DHT22;2619;47.868;11.892;2023-04-08T07:09:12;6.90;99.90
5200;DHT22;2619;47.868;11.892;2023-04-08T07:11:37;6.80;99.90
5200;DHT22;2619;47.868;11.892;2023-04-08T07:14:03;6.80;99.90
5200;DHT22;2619;47.868;11.892;2023-04-08T07:16:28;6.80;99.90
5200;DHT22;2619;47.868;11.892;2023-04-08T07:18:54;6.80;99.90
5200;DHT22;2619;47.868;11.892;2023-04-08T07:21:19;6.70;99.90
5200;DHT22;2619;47.868;11.892;2023-04-08T07:23:45;6.60;99.90
5200;DHT22;2619;47.868;11.892;2023-04-08T07:26:11;6.60;99.90
5200;DHT22;2619;47.868;11.892;2023-04-08T07:28:36;6.50;99.90
5200;DHT22;2619;47.868;11.892;2023-04-08T07:31:10;6.50;99.90
5200;DHT22;2619;47.868;11.892;2023-04-08T07:33:35;6.60;99.90
5200;DHT22;2619;47.868;11.892;2023-04-08T07:36:01;6.60;99.90
5200;DHT22;2619;47.868;11.892;2023-04-08T07:38:27;6.60;99.90
5200;DHT22;2619;47.868;11.892;2023-04-08T07:40:52;6.70;99.90
5200;DHT22;2619;47.868;11.892;2023-04-08T07:43:18;6.80;99.90
5200;DHT22;2619;47.868;11.892;2023-04-08T07:45:43;6.80;99.90
5200;DHT22;2619;47.868;11.892;2023-04-08T07:48:09;6.90;99.90
5200;DHT22;2619;47.868;11.892;2023-04-08T07:50:37;7.00;99.90
5200;DHT22;2619;47.868;11.892;2023-04-08T07:53:03;7.10;99.90
5200;DHT22;2619;47.868;11.892;2023-04-08T07:55:35;7.10;99.90
5200;DHT22;2619;47.868;11.892;2023-04-08T07:58:00;7.00;99.90
5200;DHT22;2619;47.868;11.892;2023-04-08T08:00:26;6.90;99.90
5200;DHT22;2619;47.868;11.892;2023-04-08T08:02:54;6.80;99.90
5200;DHT22;2619;47.868;11.892;2023-04-08T08:05:20;6.80;99.90
5200;DHT22;2619;47.868;11.892;2023-04-08T08:07:46;6.70;99.90
5200;DHT22;2619;47.868;11.892;2023-04-08T08:10:11;6.60;99.90
5200;DHT22;2619;47.868;11.892;2023-04-08T08:12:37;6.40;99.90
5200;DHT22;2619;47.868;11.892;2023-04-08T08:15:03;6.10;99.90
5200;DHT22;2619;47.868;11.892;2023-04-08T08:17:28;5.70;99.90
5200;DHT22;2619;47.868;11.892;2023-04-08T08:19:56;5.40;99.90
5200;DHT22;2619;47.868;11.892;2023-04-08T08:22:22;5.20;99.90
5200;DHT22;2619;47.868;11.892;2023-04-08T08:24:48;5.00;99.90
5200;DHT22;2619;47.868;11.892;2023-04-08T08:27:13;5.00;99.90
5200;DHT22;2619;47.868;11.892;2023-04-08T08:29:39;5.00;99.90
5200;DHT22;2619;47.868;11.892;2023-04-08T08:32:05;5.00;99.90
5200;DHT22;2619;47.868;11.892;2023-04-08T08:34:30;5.00;99.90
5200;DHT22;2619;47.868;11.892;2023-04-08T08:36:56;5.00;99.90
5200;DHT22;2619;47.868;11.892;2023-04-08T08:39:21;5.00;99.90
5200;DHT22;2619;47.868;11.892;2023-04-08T08:41:47;4.90;99.90
5200;DHT22;2619;47.868;11.892;2023-04-08T08:44:13;4.90;99.90
5200;DHT22;2619;47.868;11.892;2023-04-08T08:46:46;4.90;99.90
5200;DHT22;2619;47.868;11.892;2023-04-08T08:49:12;5.00;99.90
5200;DHT22;2619;47.868;11.892;2023-04-08T08:51:39;4.90;99.90
5200;DHT22;2619;47.868;11.892;2023-04-08T08:54:06;4.80;99.90
5200;DHT22;2619;47.868;11.892;2023-04-08T08:56:32;4.80;99.90
5200;DHT22;2619;47.868;11.892;2023-04-08T08:58:58;4.90;99.90
5200;DHT22;2619;47.868;11.892;2023-04-08T09:01:32;4.90;99.90
5200;DHT22;2619;47.868;11.892;2023-04-08T09:04:10;4.90;99.90
5200;DHT22;2619;47.868;11.892;2023-04-08T09:06:37;4.90;99.90
5200;DHT22;2619;47.868;11.892;2023-04-08T09:09:03;4.90;99.90
5200;DHT22;2619;47.868;11.892;2023-04-08T09:11:34;4.90;99.90
5200;DHT22;2619;47.868;11.892;2023-04-08T09:14:00;4.90;99.90
5200;DHT22;2619;47.868;11.892;2023-04-08T09:16:26;5.10;99.90
5200;DHT22;2619;47.868;11.892;2023-04-08T09:18:52;5.10;99.90
5200;DHT22;2619;47.868;11.892;2023-04-08T09:21:21;5.20;99.90
5200;DHT22;2619;47.868;11.892;2023-04-08T09:23:49;5.30;99.90
5200;DHT22;2619;47.868;11.892;2023-04-08T09:26:18;5.30;99.90
5200;DHT22;2619;47.868;11.892;2023-04-08T09:29:06;5.30;99.90
5200;DHT22;2619;47.868;11.892;2023-04-08T09:31:37;5.40;99.90
5200;DHT22;2619;47.868;11.892;2023-04-08T09:34:16;5.50;99.90
5200;DHT22;2619;47.868;11.892;2023-04-08T09:36:43;5.40;99.90
5200;DHT22;2619;47.868;11.892;2023-04-08T09:39:09;5.30;99.90
5200;DHT22;2619;47.868;11.892;2023-04-08T09:41:36;5.20;99.90
5200;DHT22;2619;47.868;11.892;2023-04-08T09:44:06;5.20;99.90
5200;DHT22;2619;47.868;11.892;2023-04-08T09:46:39;5.10;99.90
5200;DHT22;2619;47.868;11.892;2023-04-08T09:49:33;5.10;99.90
5200;DHT22;2619;47.868;11.892;2023-04-08T09:52:17;5.10;99.90
5200;DHT22;2619;47.868;11.892;2023-04-08T09:55:02;5.10;99.90
5200;DHT22;2619;47.868;11.892;2023-04-08T09:57:45;5.00;99.90
5200;DHT22;2619;47.868;11.892;2023-04-08T10:00:17;5.10;99.90
5200;DHT22;2619;47.868;11.892;2023-04-08T10:05:30;5.30;99.90
5200;DHT22;2619;47.868;11.892;2023-04-08T10:07:56;5.40;99.90
5200;DHT22;2619;47.868;11.892;2023-04-08T10:10:22;5.50;99.90
5200;DHT22;2619;47.868;11.892;2023-04-08T10:12:48;5.50;99.90
5200;DHT22;2619;47.868;11.892;2023-04-08T10:15:25;5.70;99.90
5200;DHT22;2619;47.868;11.892;2023-04-08T10:17:54;6.00;99.90
5200;DHT22;2619;47.868;11.892;2023-04-08T10:20:40;6.10;99.90
5200;DHT22;2619;47.868;11.892;2023-04-08T10:23:08;6.10;99.90
5200;DHT22;2619;47.868;11.892;2023-04-08T10:25:45;6.10;99.90
5200;DHT22;2619;47.868;11.892;2023-04-08T10:33:10;6.10;99.90
5200;DHT22;2619;47.868;11.892;2023-04-08T10:35:39;6.20;99.90
5200;DHT22;2619;47.868;11.892;2023-04-08T10:38:07;6.20;99.90
5200;DHT22;2619;47.868;11.892;2023-04-08T10:40:37;6.10;99.90
5200;DHT22;2619;47.868;11.892;2023-04-08T10:43:10;6.10;99.90
5200;DHT22;2619;47.868;11.892;2023-04-08T10:45:36;6.00;99.90
5200;DHT22;2619;47.868;11.892;2023-04-08T10:48:12;5.90;99.90
5200;DHT22;2619;47.868;11.892;2023-04-08T10:50:38;5.80;99.90
5200;DHT22;2619;47.868;11.892;2023-04-08T10:53:05;5.80;99.90
5200;DHT22;2619;47.868;11.892;2023-04-08T10:55:31;5.90;99.90
5200;DHT22;2619;47.868;11.892;2023-04-08T10:58:06;6.00;99.90
5200;DHT22;2619;47.868;11.892;2023-04-08T11:03:06;6.10;99.90
5200;DHT22;2619;47.868;11.892;2023-04-08T11:05:32;6.30;99.90
5200;DHT22;2619;47.868;11.892;2023-04-08T11:07:58;6.50;99.90
5200;DHT22;2619;47.868;11.892;2023-04-08T11:10:25;6.60;99.90
5200;DHT22;2619;47.868;11.892;2023-04-08T11:12:56;6.80;99.90
5200;DHT22;2619;47.868;11.892;2023-04-08T11:15:24;6.80;99.90
5200;DHT22;2619;47.868;11.892;2023-04-08T11:17:50;6.80;99.90
5200;DHT22;2619;47.868;11.892;2023-04-08T11:20:16;6.60;99.90
5200;DHT22;2619;47.868;11.892;2023-04-08T11:22:43;6.90;99.90
5200;DHT22;2619;47.868;11.892;2023-04-08T11:25:09;6.80;99.90
5200;DHT22;2619;47.868;11.892;2023-04-08T11:27:36;6.90;99.90
5200;DHT22;2619;47.868;11.892;2023-04-08T11:30:02;6.80;99.90
5200;DHT22;2619;47.868;11.892;2023-04-08T11:32:29;6.70;99.90
5200;DHT22;2619;47.868;11.892;2023-04-08T11:34:55;6.70;99.90
5200;DHT22;2619;47.868;11.892;2023-04-08T11:37:20;6.80;99.90
5200;DHT22;2619;47.868;11.892;2023-04-08T11:39:49;6.90;99.90
5200;DHT22;2619;47.868;11.892;2023-04-08T11:42:30;7.00;99.90
5200;DHT22;2619;47.868;11.892;2023-04-08T11:44:56;7.00;99.90
5200;DHT22;2619;47.868;11.892;2023-04-08T11:47:35;7.10;99.90
5200;DHT22;2619;47.868;11.892;2023-04-08T11:50:02;7.10;99.90
5200;DHT22;2619;47.868;11.892;2023-04-08T11:52:47;6.90;99.90
5200;DHT22;2619;47.868;11.892;2023-04-08T11:55:32;6.80;99.90
5200;DHT22;2619;47.868;11.892;2023-04-08T11:58:02;6.60;99.90
5200;DHT22;2619;47.868;11.892;2023-04-08T12:00:28;6.30;99.90
5200;DHT22;2619;47.868;11.892;2023-04-08T12:02:55;6.20;99.90
5200;DHT22;2619;47.868;11.892;2023-04-08T12:05:21;6.10;99.90
5200;DHT22;2619;47.868;11.892;2023-04-08T12:07:47;5.90;99.90
5200;DHT22;2619;47.868;11.892;2023-04-08T12:10:12;5.80;99.90
5200;DHT22;2619;47.868;11.892;2023-04-08T12:12:39;5.80;99.90
5200;DHT22;2619;47.868;11.892;2023-04-08T12:15:05;5.60;99.90
5200;DHT22;2619;47.868;11.892;2023-04-08T12:17:31;5.60;99.90
5200;DHT22;2619;47.868;11.892;2023-04-08T12:19:57;5.60;99.90
5200;DHT22;2619;47.868;11.892;2023-04-08T12:22:23;5.50;99.90
5200;DHT22;2619;47.868;11.892;2023-04-08T12:24:48;5.60;99.90
5200;DHT22;2619;47.868;11.892;2023-04-08T12:27:14;5.50;99.90
5200;DHT22;2619;47.868;11.892;2023-04-08T12:29:39;5.40;99.90
5200;DHT22;2619;47.868;11.892;2023-04-08T12:32:06;5.40;99.90
5200;DHT22;2619;47.868;11.892;2023-04-08T12:34:31;5.40;99.90
5200;DHT22;2619;47.868;11.892;2023-04-08T12:36:57;5.40;99.90
5200;DHT22;2619;47.868;11.892;2023-04-08T12:39:23;5.30;99.90
5200;DHT22;2619;47.868;11.892;2023-04-08T12:41:49;5.30;99.90
5200;DHT22;2619;47.868;11.892;2023-04-08T12:44:14;5.30;99.90
5200;DHT22;2619;47.868;11.892;2023-04-08T12:46:40;5.30;99.90
5200;DHT22;2619;47.868;11.892;2023-04-08T12:49:06;5.10;99.90
5200;DHT22;2619;47.868;11.892;2023-04-08T12:51:31;5.20;99.90
5200;DHT22;2619;47.868;11.892;2023-04-08T12:53:57;5.10;99.90
5200;DHT22;2619;47.868;11.892;2023-04-08T12:56:24;5.20;99.90
5200;DHT22;2619;47.868;11.892;2023-04-08T12:58:50;5.10;99.90
5200;DHT22;2619;47.868;11.892;2023-04-08T13:01:15;5.30;99.90
5200;DHT22;2619;47.868;11.892;2023-04-08T13:03:41;5.30;99.90
5200;DHT22;2619;47.868;11.892;2023-04-08T13:06:07;5.30;99.90
5200;DHT22;2619;47.868;11.892;2023-04-08T13:08:33;5.30;99.90
5200;DHT22;2619;47.868;11.892;2023-04-08T13:10:58;5.30;99.90
5200;DHT22;2619;47.868;11.892;2023-04-08T13:13:24;5.30;99.90
5200;DHT22;2619;47.868;11.892;2023-04-08T13:15:50;5.40;99.90
5200;DHT22;2619;47.868;11.892;2023-04-08T13:18:16;5.30;99.90
5200;DHT22;2619;47.868;11.892;2023-04-08T13:20:42;5.10;99.90
5200;DHT22;2619;47.868;11.892;2023-04-08T13:23:07;5.00;99.90
5200;DHT22;2619;47.868;11.892;2023-04-08T13:25:33;5.00;99.90
5200;DHT22;2619;47.868;11.892;2023-04-08T13:27:58;5.00;99.90
5200;DHT22;2619;47.868;11.892;2023-04-08T13:30:24;5.00;99.90
5200;DHT22;2619;47.868;11.892;2023-04-08T13:32:50;5.00;99.90
5200;DHT22;2619;47.868;11.892;2023-04-08T13:35:15;4.90;99.90
5200;DHT22;2619;47.868;11.892;2023-04-08T13:37:41;5.00;99.90
5200;DHT22;2619;47.868;11.892;2023-04-08T13:40:07;5.00;99.90
5200;DHT22;2619;47.868;11.892;2023-04-08T13:42:33;5.00;99.90
5200;DHT22;2619;47.868;11.892;2023-04-08T13:44:59;5.10;99.90
5200;DHT22;2619;47.868;11.892;2023-04-08T13:47:25;5.10;99.90
5200;DHT22;2619;47.868;11.892;2023-04-08T13:49:53;5.10;99.90
5200;DHT22;2619;47.868;11.892;2023-04-08T13:52:19;5.00;99.90
5200;DHT22;2619;47.868;11.892;2023-04-08T13:54:45;4.90;99.90
5200;DHT22;2619;47.868;11.892;2023-04-08T13:57:11;4.70;99.90
5200;DHT22;2619;47.868;11.892;2023-04-08T13:59:37;4.70;99.90
5200;DHT22;2619;47.868;11.892;2023-04-08T14:02:03;4.60;99.90
5200;DHT22;2619;47.868;11.892;2023-04-08T14:04:28;4.50;99.90
5200;DHT22;2619;47.868;11.892;2023-04-08T14:06:54;4.50;99.90
5200;DHT22;2619;47.868;11.892;2023-04-08T14:09:22;4.50;99.90
5200;DHT22;2619;47.868;11.892;2023-04-08T14:11:48;4.40;99.90
5200;DHT22;2619;47.868;11.892;2023-04-08T14:14:13;4.40;99.90
5200;DHT22;2619;47.868;11.892;2023-04-08T14:16:39;4.50;99.90
5200;DHT22;2619;47.868;11.892;2023-04-08T14:19:06;4.40;99.90
5200;DHT22;2619;47.868;11.892;2023-04-08T14:21:31;4.40;99.90
5200;DHT22;2619;47.868;11.892;2023-04-08T14:23:57;4.40;99.90
5200;DHT22;2619;47.868;11.892;2023-04-08T14:26:23;4.40;99.90
5200;DHT22;2619;47.868;11.892;2023-04-08T14:28:49;4.30;99.90
5200;DHT22;2619;47.868;11.892;2023-04-08T14:31:14;4.30;99.90
5200;DHT22;2619;47.868;11.892;2023-04-08T14:33:40;4.40;99.90
5200;DHT22;2619;47.868;11.892;2023-04-08T14:36:07;4.30;99.90
5200;DHT22;2619;47.868;11.892;2023-04-08T14:38:33;4.40;99.90
5200;DHT22;2619;47.868;11.892;2023-04-08T14:40:58;4.40;99.90
5200;DHT22;2619;47.868;11.892;2023-04-08T14:43:24;4.40;99.90
5200;DHT22;2619;47.868;11.892;2023-04-08T14:45:50;4.30;99.90
5200;DHT22;2619;47.868;11.892;2023-04-08T14:48:16;4.30;99.90
5200;DHT22;2619;47.868;11.892;2023-04-08T14:50:42;4.20;99.90
5200;DHT22;2619;47.868;11.892;2023-04-08T14:53:08;4.20;99.90
5200;DHT22;2619;47.868;11.892;2023-04-08T14:55:33;4.20;99.90
5200;DHT22;2619;47.868;11.892;2023-04-08T14:57:59;4.20;99.90
5200;DHT22;2619;47.868;11.892;2023-04-08T15:00:25;4.20;99.90
5200;DHT22;2619;47.868;11.892;2023-04-08T15:02:51;4.20;99.90
5200;DHT22;2619;47.868;11.892;2023-04-08T15:05:16;4.20;99.90
5200;DHT22;2619;47.868;11.892;2023-04-08T15:07:42;4.10;99.90
5200;DHT22;2619;47.868;11.892;2023-04-08T15:10:08;4.20;99.90
5200;DHT22;2619;47.868;11.892;2023-04-08T15:12:34;4.20;99.90
5200;DHT22;2619;47.868;11.892;2023-04-08T15:15:01;4.10;99.90
5200;DHT22;2619;47.868;11.892;2023-04-08T15:17:26;4.20;99.90
5200;DHT22;2619;47.868;11.892;2023-04-08T15:19:52;4.20;99.90
5200;DHT22;2619;47.868;11.892;2023-04-08T15:22:18;4.30;99.90
5200;DHT22;2619;47.868;11.892;2023-04-08T15:24:43;4.50;99.90
5200;DHT22;2619;47.868;11.892;2023-04-08T15:27:09;4.50;99.90
5200;DHT22;2619;47.868;11.892;2023-04-08T15:29:35;4.50;99.90
5200;DHT22;2619;47.868;11.892;2023-04-08T15:32:00;4.50;99.90
5200;DHT22;2619;47.868;11.892;2023-04-08T15:34:26;4.50;99.90
5200;DHT22;2619;47.868;11.892;2023-04-08T15:36:53;4.50;99.90
5200;DHT22;2619;47.868;11.892;2023-04-08T15:39:22;4.50;99.90
5200;DHT22;2619;47.868;11.892;2023-04-08T15:41:48;4.40;99.90
5200;DHT22;2619;47.868;11.892;2023-04-08T15:44:14;4.50;99.90
5200;DHT22;2619;47.868;11.892;2023-04-08T15:46:40;4.30;99.90
5200;DHT22;2619;47.868;11.892;2023-04-08T15:49:05;4.30;99.90
5200;DHT22;2619;47.868;11.892;2023-04-08T15:51:32;4.30;99.90
5200;DHT22;2619;47.868;11.892;2023-04-08T15:53:58;4.30;99.90
5200;DHT22;2619;47.868;11.892;2023-04-08T15:56:23;4.30;99.90
5200;DHT22;2619;47.868;11.892;2023-04-08T15:58:51;4.40;99.90
5200;DHT22;2619;47.868;11.892;2023-04-08T16:01:17;4.40;99.90
5200;DHT22;2619;47.868;11.892;2023-04-08T16:03:44;4.40;99.90
5200;DHT22;2619;47.868;11.892;2023-04-08T16:06:10;4.40;99.90
5200;DHT22;2619;47.868;11.892;2023-04-08T16:08:36;4.40;99.90
5200;DHT22;2619;47.868;11.892;2023-04-08T16:11:03;4.40;99.90
5200;DHT22;2619;47.868;11.892;2023-04-08T16:13:29;4.40;99.90